sensor_id;sensor_type;location;lat;lon;timestamp;pressure;altitude;pressure_sealevel;temperature;humidity
70976;BME280;58635;51.198;6.010;2023-02-11T00:01:27;103333.41;;;10.04;59.50
70976;BME280;58635;51.198;6.010;2023-02-11T00:03:53;103337.06;;;10.01;59.50
70976;BME280;58635;51.198;6.010;2023-02-11T00:06:18;103323.59;;;9.98;59.32
70976;BME280;58635;51.198;6.010;2023-02-11T00:08:44;103331.34;;;9.98;59.33
70976;BME280;58635;51.198;6.010;2023-02-11T00:11:15;103329.56;;;9.98;59.53
70976;BME280;58635;51.198;6.010;2023-02-11T00:13:41;103328.88;;;9.96;59.53
70976;BME280;58635;51.198;6.010;2023-02-11T00:16:15;103337.69;;;9.93;59.50
70976;BME280;58635;51.198;6.010;2023-02-11T00:18:42;103334.41;;;9.91;59.55
70976;BME280;58635;51.198;6.010;2023-02-11T00:21:21;103327.59;;;9.90;59.50
70976;BME280;58635;51.198;6.010;2023-02-11T00:23:48;103322.56;;;9.89;59.48
70976;BME280;58635;51.198;6.010;2023-02-11T00:26:34;103316.56;;;9.88;59.45
70976;BME280;58635;51.198;6.010;2023-02-11T00:29:00;103318.47;;;9.86;59.61
70976;BME280;58635;51.198;6.010;2023-02-11T00:31:26;103315.06;;;9.86;59.58
70976;BME280;58635;51.198;6.010;2023-02-11T00:33:52;103310.03;;;9.84;59.62
70976;BME280;58635;51.198;6.010;2023-02-11T00:36:22;103313.56;;;9.83;59.58
70976;BME280;58635;51.198;6.010;2023-02-11T00:38:49;103309.31;;;9.82;59.64
70976;BME280;58635;51.198;6.010;2023-02-11T00:41:15;103310.16;;;9.83;59.75
70976;BME280;58635;51.198;6.010;2023-02-11T00:43:41;103311.22;;;9.80;59.84
70976;BME280;58635;51.198;6.010;2023-02-11T00:46:07;103311.06;;;9.82;59.62
70976;BME280;58635;51.198;6.010;2023-02-11T00:48:32;103309.69;;;9.78;59.88
70976;BME280;58635;51.198;6.010;2023-02-11T00:50:58;103303.72;;;9.77;59.86
70976;BME280;58635;51.198;6.010;2023-02-11T00:53:24;103310.78;;;9.75;59.92
70976;BME280;58635;51.198;6.010;2023-02-11T00:55:49;103304.22;;;9.71;59.97
70976;BME280;58635;51.198;6.010;2023-02-11T00:58:15;103301.53;;;9.73;59.95
70976;BME280;58635;51.198;6.010;2023-02-11T01:00:40;103305.16;;;9.70;59.97
70976;BME280;58635;51.198;6.010;2023-02-11T01:03:06;103306.22;;;9.67;60.15
70976;BME280;58635;51.198;6.010;2023-02-11T01:05:31;103307.31;;;9.65;60.26
70976;BME280;58635;51.198;6.010;2023-02-11T01:07:57;103303.22;;;9.62;60.30
70976;BME280;58635;51.198;6.010;2023-02-11T01:10:22;103304.50;;;9.57;60.44
70976;BME280;58635;51.198;6.010;2023-02-11T01:12:48;103307.91;;;9.57;60.50
70976;BME280;58635;51.198;6.010;2023-02-11T01:15:15;103301.81;;;9.58;60.55
70976;BME280;58635;51.198;6.010;2023-02-11T01:17:40;103301.94;;;9.57;60.41
70976;BME280;58635;51.198;6.010;2023-02-11T01:20:10;103306.53;;;9.53;60.47
70976;BME280;58635;51.198;6.010;2023-02-11T01:22:37;103308.31;;;9.53;60.54
70976;BME280;58635;51.198;6.010;2023-02-11T01:25:05;103312.66;;;9.52;60.49
70976;BME280;58635;51.198;6.010;2023-02-11T01:27:31;103311.69;;;9.53;60.58
70976;BME280;58635;51.198;6.010;2023-02-11T01:29:56;103297.41;;;9.49;60.49
70976;BME280;58635;51.198;6.010;2023-02-11T01:32:22;103299.31;;;9.47;60.54
70976;BME280;58635;51.198;6.010;2023-02-11T01:34:47;103302.69;;;9.48;60.45
70976;BME280;58635;51.198;6.010;2023-02-11T01:37:12;103305.28;;;9.48;60.58
70976;BME280;58635;51.198;6.010;2023-02-11T01:39:38;103304.47;;;9.47;60.54
70976;BME280;58635;51.198;6.010;2023-02-11T01:42:04;103312.09;;;9.49;60.45
70976;BME280;58635;51.198;6.010;2023-02-11T01:46:57;103314.69;;;9.49;60.44
70976;BME280;58635;51.198;6.010;2023-02-11T01:49:26;103311.28;;;9.48;60.44
70976;BME280;58635;51.198;6.010;2023-02-11T01:54:24;103321.69;;;9.47;60.69
70976;BME280;58635;51.198;6.010;2023-02-11T01:57:10;103314.06;;;9.45;60.58
70976;BME280;58635;51.198;6.010;2023-02-11T01:59:53;103305.50;;;9.45;60.64
70976;BME280;58635;51.198;6.010;2023-02-11T02:03:14;103298.72;;;9.44;60.49
70976;BME280;58635;51.198;6.010;2023-02-11T02:07:55;103304.69;;;9.44;60.56
70976;BME280;58635;51.198;6.010;2023-02-11T02:10:25;103296.94;;;9.44;60.73
70976;BME280;58635;51.198;6.010;2023-02-11T02:12:52;103291.66;;;9.46;60.74
70976;BME280;58635;51.198;6.010;2023-02-11T02:17:58;103283.28;;;9.53;60.55
70976;BME280;58635;51.198;6.010;2023-02-11T02:26:37;103276.06;;;9.47;60.79
70976;BME280;58635;51.198;6.010;2023-02-11T02:35:00;103274.22;;;9.38;61.25
70976;BME280;58635;51.198;6.010;2023-02-11T02:37:44;103267.41;;;9.37;61.27
70976;BME280;58635;51.198;6.010;2023-02-11T02:40:16;103271.75;;;9.36;61.32
70976;BME280;58635;51.198;6.010;2023-02-11T02:42:44;103277.75;;;9.37;61.29
70976;BME280;58635;51.198;6.010;2023-02-11T02:45:11;103279.38;;;9.38;61.32
70976;BME280;58635;51.198;6.010;2023-02-11T02:47:37;103283.59;;;9.39;61.25
70976;BME280;58635;51.198;6.010;2023-02-11T02:50:04;103286.63;;;9.44;61.13
70976;BME280;58635;51.198;6.010;2023-02-11T02:55:33;103284.72;;;9.46;61.44
70976;BME280;58635;51.198;6.010;2023-02-11T02:58:32;103269.84;;;9.38;61.37
70976;BME280;58635;51.198;6.010;2023-02-11T03:04:22;103271.50;;;9.40;61.48
70976;BME280;58635;51.198;6.010;2023-02-11T03:07:00;103274.91;;;9.40;61.48
70976;BME280;58635;51.198;6.010;2023-02-11T03:09:41;103279.69;;;9.45;61.25
70976;BME280;58635;51.198;6.010;2023-02-11T03:12:11;103277.44;;;9.51;61.18
70976;BME280;58635;51.198;6.010;2023-02-11T03:14:39;103277.16;;;9.54;61.05
70976;BME280;58635;51.198;6.010;2023-02-11T03:17:07;103266.84;;;9.54;61.29
70976;BME280;58635;51.198;6.010;2023-02-11T03:19:42;103260.84;;;9.54;61.37
70976;BME280;58635;51.198;6.010;2023-02-11T03:22:26;103257.72;;;9.50;61.42
70976;BME280;58635;51.198;6.010;2023-02-11T03:24:55;103253.50;;;9.49;61.57
70976;BME280;58635;51.198;6.010;2023-02-11T03:27:27;103260.16;;;9.52;61.32
70976;BME280;58635;51.198;6.010;2023-02-11T03:30:09;103255.94;;;9.51;61.50
70976;BME280;58635;51.198;6.010;2023-02-11T03:32:37;103252.81;;;9.47;61.58
70976;BME280;58635;51.198;6.010;2023-02-11T03:37:50;103250.09;;;9.49;61.66
70976;BME280;58635;51.198;6.010;2023-02-11T03:40:20;103236.91;;;9.52;61.65
70976;BME280;58635;51.198;6.010;2023-02-11T03:42:58;103247.94;;;9.54;61.89
70976;BME280;58635;51.198;6.010;2023-02-11T03:45:25;103248.75;;;9.54;61.75
70976;BME280;58635;51.198;6.010;2023-02-11T03:47:59;103254.75;;;9.55;61.71
70976;BME280;58635;51.198;6.010;2023-02-11T03:50:25;103260.56;;;9.47;61.62
70976;BME280;58635;51.198;6.010;2023-02-11T03:52:53;103255.13;;;9.50;61.58
70976;BME280;58635;51.198;6.010;2023-02-11T03:55:21;103255.81;;;9.52;61.67
70976;BME280;58635;51.198;6.010;2023-02-11T03:57:47;103257.44;;;9.53;61.58
70976;BME280;58635;51.198;6.010;2023-02-11T04:00:13;103252.84;;;9.57;61.75
70976;BME280;58635;51.198;6.010;2023-02-11T04:02:40;103254.31;;;9.50;61.94
70976;BME280;58635;51.198;6.010;2023-02-11T04:05:07;103253.03;;;9.44;62.08
70976;BME280;58635;51.198;6.010;2023-02-11T04:07:33;103251.22;;;9.56;61.70
70976;BME280;58635;51.198;6.010;2023-02-11T04:09:58;103248.38;;;9.59;62.09
70976;BME280;58635;51.198;6.010;2023-02-11T04:12:24;103244.72;;;9.61;61.68
70976;BME280;58635;51.198;6.010;2023-02-11T04:14:49;103242.28;;;9.60;61.82
70976;BME280;58635;51.198;6.010;2023-02-11T04:17:15;103256.13;;;9.59;61.97
70976;BME280;58635;51.198;6.010;2023-02-11T04:19:40;103248.50;;;9.57;61.82
70976;BME280;58635;51.198;6.010;2023-02-11T04:22:06;103249.31;;;9.58;61.93
70976;BME280;58635;51.198;6.010;2023-02-11T04:24:31;103250.94;;;9.59;62.08
70976;BME280;58635;51.198;6.010;2023-02-11T04:26:57;103241.56;;;9.58;62.01
70976;BME280;58635;51.198;6.010;2023-02-11T04:29:22;103239.69;;;9.60;61.96
70976;BME280;58635;51.198;6.010;2023-02-11T04:31:48;103242.84;;;9.63;62.00
70976;BME280;58635;51.198;6.010;2023-02-11T04:34:14;103238.75;;;9.61;61.88
70976;BME280;58635;51.198;6.010;2023-02-11T04:36:39;103237.53;;;9.65;61.93
70976;BME280;58635;51.198;6.010;2023-02-11T04:39:05;103231.41;;;9.66;61.92
70976;BME280;58635;51.198;6.010;2023-02-11T04:41:31;103232.38;;;9.65;61.91
70976;BME280;58635;51.198;6.010;2023-02-11T04:43:56;103235.38;;;9.70;61.86
70976;BME280;58635;51.198;6.010;2023-02-11T04:46:22;103234.47;;;9.71;61.76
70976;BME280;58635;51.198;6.010;2023-02-11T04:48:47;103234.47;;;9.71;61.79
70976;BME280;58635;51.198;6.010;2023-02-11T04:51:12;103232.94;;;9.68;61.72
70976;BME280;58635;51.198;6.010;2023-02-11T04:53:38;103225.03;;;9.70;61.90
70976;BME280;58635;51.198;6.010;2023-02-11T04:56:04;103239.63;;;9.71;61.97
70976;BME280;58635;51.198;6.010;2023-02-11T04:58:29;103230.47;;;9.67;61.98
70976;BME280;58635;51.198;6.010;2023-02-11T05:00:54;103227.88;;;9.67;62.16
70976;BME280;58635;51.198;6.010;2023-02-11T05:03:20;103235.50;;;9.68;61.99
70976;BME280;58635;51.198;6.010;2023-02-11T05:05:46;103233.59;;;9.71;62.22
70976;BME280;58635;51.198;6.010;2023-02-11T05:08:11;103237.03;;;9.71;62.08
70976;BME280;58635;51.198;6.010;2023-02-11T05:10:37;103226.56;;;9.73;62.09
70976;BME280;58635;51.198;6.010;2023-02-11T05:13:03;103229.97;;;9.73;62.04
70976;BME280;58635;51.198;6.010;2023-02-11T05:15:29;103229.28;;;9.71;62.14
70976;BME280;58635;51.198;6.010;2023-02-11T05:17:54;103238.78;;;9.71;62.29
70976;BME280;58635;51.198;6.010;2023-02-11T05:20:20;103241.38;;;9.71;62.24
70976;BME280;58635;51.198;6.010;2023-02-11T05:22:46;103235.38;;;9.70;62.18
70976;BME280;58635;51.198;6.010;2023-02-11T05:25:11;103233.59;;;9.71;62.30
70976;BME280;58635;51.198;6.010;2023-02-11T05:27:37;103240.19;;;9.75;62.32
70976;BME280;58635;51.198;6.010;2023-02-11T05:30:03;103233.59;;;9.71;62.38
70976;BME280;58635;51.198;6.010;2023-02-11T05:32:28;103240.31;;;9.73;62.75
70976;BME280;58635;51.198;6.010;2023-02-11T05:34:54;103232.44;;;9.75;62.47
70976;BME280;58635;51.198;6.010;2023-02-11T05:37:19;103235.16;;;9.73;62.52
70976;BME280;58635;51.198;6.010;2023-02-11T05:39:45;103234.19;;;9.74;62.46
70976;BME280;58635;51.198;6.010;2023-02-11T05:42:10;103224.81;;;9.73;62.41
70976;BME280;58635;51.198;6.010;2023-02-11T05:44:35;103221.97;;;9.76;62.25
70976;BME280;58635;51.198;6.010;2023-02-11T05:47:01;103217.59;;;9.77;62.21
70976;BME280;58635;51.198;6.010;2023-02-11T05:49:26;103227.81;;;9.78;62.38
70976;BME280;58635;51.198;6.010;2023-02-11T05:51:52;103228.63;;;9.79;62.20
70976;BME280;58635;51.198;6.010;2023-02-11T05:54:17;103227.56;;;9.81;62.21
70976;BME280;58635;51.198;6.010;2023-02-11T05:56:42;103233.53;;;9.82;62.18
70976;BME280;58635;51.198;6.010;2023-02-11T05:59:08;103219.69;;;9.83;62.20
70976;BME280;58635;51.198;6.010;2023-02-11T06:01:33;103221.56;;;9.81;62.27
70976;BME280;58635;51.198;6.010;2023-02-11T06:03:59;103229.31;;;9.81;62.39
70976;BME280;58635;51.198;6.010;2023-02-11T06:06:24;103234.47;;;9.81;62.23
70976;BME280;58635;51.198;6.010;2023-02-11T06:08:50;103238.84;;;9.80;62.38
70976;BME280;58635;51.198;6.010;2023-02-11T06:11:16;103239.66;;;9.81;62.41
70976;BME280;58635;51.198;6.010;2023-02-11T06:13:42;103237.78;;;9.83;62.43
70976;BME280;58635;51.198;6.010;2023-02-11T06:16:07;103232.47;;;9.84;62.29
70976;BME280;58635;51.198;6.010;2023-02-11T06:18:33;103228.94;;;9.85;62.33
70976;BME280;58635;51.198;6.010;2023-02-11T06:20:59;103227.06;;;9.87;62.46
70976;BME280;58635;51.198;6.010;2023-02-11T06:23:24;103225.28;;;9.88;62.49
70976;BME280;58635;51.198;6.010;2023-02-11T06:25:50;103207.69;;;9.82;62.56
70976;BME280;58635;51.198;6.010;2023-02-11T06:28:16;103207.81;;;9.80;62.71
70976;BME280;58635;51.198;6.010;2023-02-11T06:30:41;103213.69;;;9.82;62.69
70976;BME280;58635;51.198;6.010;2023-02-11T06:33:07;103218.84;;;9.82;62.94
70976;BME280;58635;51.198;6.010;2023-02-11T06:35:32;103216.41;;;9.81;62.92
70976;BME280;58635;51.198;6.010;2023-02-11T06:38:00;103218.16;;;9.80;63.06
70976;BME280;58635;51.198;6.010;2023-02-11T06:40:25;103213.81;;;9.81;63.11
70976;BME280;58635;51.198;6.010;2023-02-11T06:42:51;103222.38;;;9.81;63.20
70976;BME280;58635;51.198;6.010;2023-02-11T06:45:16;103226.03;;;9.79;63.19
70976;BME280;58635;51.198;6.010;2023-02-11T06:47:42;103230.28;;;9.80;63.17
70976;BME280;58635;51.198;6.010;2023-02-11T06:50:11;103229.31;;;9.81;63.28
70976;BME280;58635;51.198;6.010;2023-02-11T06:52:36;103233.94;;;9.77;63.29
70976;BME280;58635;51.198;6.010;2023-02-11T06:55:02;103242.25;;;9.81;63.20
70976;BME280;58635;51.198;6.010;2023-02-11T06:57:29;103242.97;;;9.83;63.06
70976;BME280;58635;51.198;6.010;2023-02-11T06:59:54;103239.28;;;9.85;63.05
70976;BME280;58635;51.198;6.010;2023-02-11T07:02:20;103237.25;;;9.89;62.89
70976;BME280;58635;51.198;6.010;2023-02-11T07:04:45;103236.19;;;9.91;62.93
70976;BME280;58635;51.198;6.010;2023-02-11T07:07:10;103248.03;;;9.94;62.79
70976;BME280;58635;51.198;6.010;2023-02-11T07:09:36;103250.72;;;9.92;62.91
70976;BME280;58635;51.198;6.010;2023-02-11T07:12:01;103252.28;;;9.95;62.78
70976;BME280;58635;51.198;6.010;2023-02-11T07:14:27;103259.75;;;9.98;62.62
70976;BME280;58635;51.198;6.010;2023-02-11T07:16:52;103257.88;;;10.00;62.45
70976;BME280;58635;51.198;6.010;2023-02-11T07:19:18;103257.72;;;10.02;62.64
70976;BME280;58635;51.198;6.010;2023-02-11T07:21:43;103266.31;;;10.02;62.81
70976;BME280;58635;51.198;6.010;2023-02-11T07:24:09;103257.88;;;10.00;62.88
70976;BME280;58635;51.198;6.010;2023-02-11T07:26:35;103263.59;;;10.04;62.76
70976;BME280;58635;51.198;6.010;2023-02-11T07:29:00;103259.22;;;10.04;62.87
70976;BME280;58635;51.198;6.010;2023-02-11T07:31:27;103266.16;;;10.04;62.80
70976;BME280;58635;51.198;6.010;2023-02-11T07:33:55;103262.09;;;10.01;63.02
70976;BME280;58635;51.198;6.010;2023-02-11T07:36:22;103267.25;;;10.01;63.02
70976;BME280;58635;51.198;6.010;2023-02-11T07:38:47;103267.94;;;9.82;63.75
70976;BME280;58635;51.198;6.010;2023-02-11T07:41:15;103268.63;;;9.75;63.97
70976;BME280;58635;51.198;6.010;2023-02-11T07:43:43;103273.09;;;9.73;64.17
70976;BME280;58635;51.198;6.010;2023-02-11T07:46:12;103282.03;;;9.68;64.37
70976;BME280;58635;51.198;6.010;2023-02-11T07:48:38;103282.97;;;9.67;64.44
70976;BME280;58635;51.198;6.010;2023-02-11T07:51:06;103278.75;;;9.66;64.45
70976;BME280;58635;51.198;6.010;2023-02-11T07:53:31;103274.41;;;9.67;64.53
70976;BME280;58635;51.198;6.010;2023-02-11T07:55:57;103274.28;;;9.68;64.69
70976;BME280;58635;51.198;6.010;2023-02-11T07:58:22;103276.84;;;9.68;64.66
70976;BME280;58635;51.198;6.010;2023-02-11T08:00:47;103281.06;;;9.70;64.61
70976;BME280;58635;51.198;6.010;2023-02-11T08:03:13;103292.13;;;9.72;64.58
70976;BME280;58635;51.198;6.010;2023-02-11T08:05:38;103293.50;;;9.76;64.46
70976;BME280;58635;51.198;6.010;2023-02-11T08:08:04;103298.53;;;9.77;64.47
70976;BME280;58635;51.198;6.010;2023-02-11T08:10:29;103303.59;;;9.79;64.63
70976;BME280;58635;51.198;6.010;2023-02-11T08:12:55;103302.50;;;9.81;64.26
70976;BME280;58635;51.198;6.010;2023-02-11T08:15:20;103305.69;;;9.85;64.54
70976;BME280;58635;51.198;6.010;2023-02-11T08:17:45;103306.38;;;9.87;64.30
70976;BME280;58635;51.198;6.010;2023-02-11T08:20:11;103307.06;;;9.89;64.42
70976;BME280;58635;51.198;6.010;2023-02-11T08:22:36;103296.84;;;9.87;64.42
70976;BME280;58635;51.198;6.010;2023-02-11T08:25:02;103305.16;;;9.91;64.36
70976;BME280;58635;51.198;6.010;2023-02-11T08:27:30;103294.56;;;9.94;64.38
70976;BME280;58635;51.198;6.010;2023-02-11T08:29:55;103302.06;;;9.97;64.32
70976;BME280;58635;51.198;6.010;2023-02-11T08:32:21;103297.84;;;9.96;64.33
70976;BME280;58635;51.198;6.010;2023-02-11T08:34:52;103306.03;;;10.01;64.37
70976;BME280;58635;51.198;6.010;2023-02-11T08:37:18;103311.75;;;10.05;64.43
70976;BME280;58635;51.198;6.010;2023-02-11T08:39:44;103310.72;;;10.07;64.28
70976;BME280;58635;51.198;6.010;2023-02-11T08:42:12;103319.16;;;10.09;64.42
70976;BME280;58635;51.198;6.010;2023-02-11T08:44:37;103325.00;;;10.11;64.15
70976;BME280;58635;51.198;6.010;2023-02-11T08:47:03;103323.13;;;10.13;64.19
70976;BME280;58635;51.198;6.010;2023-02-11T08:49:29;103320.41;;;10.15;64.24
70976;BME280;58635;51.198;6.010;2023-02-11T08:51:55;103322.97;;;10.15;64.22
70976;BME280;58635;51.198;6.010;2023-02-11T08:54:23;103323.94;;;10.14;64.30
70976;BME280;58635;51.198;6.010;2023-02-11T08:56:50;103314.41;;;10.14;64.39
70976;BME280;58635;51.198;6.010;2023-02-11T08:59:15;103326.38;;;10.15;64.47
70976;BME280;58635;51.198;6.010;2023-02-11T09:01:42;103322.63;;;10.19;64.32
70976;BME280;58635;51.198;6.010;2023-02-11T09:04:08;103332.97;;;10.19;64.46
70976;BME280;58635;51.198;6.010;2023-02-11T09:06:34;103323.44;;;10.20;64.42
70976;BME280;58635;51.198;6.010;2023-02-11T09:08:59;103326.03;;;10.20;64.38
70976;BME280;58635;51.198;6.010;2023-02-11T09:11:31;103347.44;;;10.22;64.49
70976;BME280;58635;51.198;6.010;2023-02-11T09:13:57;103349.19;;;10.21;64.52
70976;BME280;58635;51.198;6.010;2023-02-11T09:16:26;103349.06;;;10.23;64.57
70976;BME280;58635;51.198;6.010;2023-02-11T09:18:52;103344.84;;;10.22;64.52
70976;BME280;58635;51.198;6.010;2023-02-11T09:21:18;103347.97;;;10.25;64.56
70976;BME280;58635;51.198;6.010;2023-02-11T09:23:44;103345.03;;;10.30;64.31
70976;BME280;58635;51.198;6.010;2023-02-11T09:26:20;103354.28;;;10.33;64.48
70976;BME280;58635;51.198;6.010;2023-02-11T09:28:46;103351.72;;;10.33;64.33
70976;BME280;58635;51.198;6.010;2023-02-11T09:31:14;103349.66;;;10.36;64.41
70976;BME280;58635;51.198;6.010;2023-02-11T09:33:42;103346.00;;;10.39;64.36
70976;BME280;58635;51.198;6.010;2023-02-11T09:36:13;103340.81;;;10.39;64.51
70976;BME280;58635;51.198;6.010;2023-02-11T09:38:40;103335.41;;;10.42;64.58
70976;BME280;58635;51.198;6.010;2023-02-11T09:44:01;103345.38;;;10.46;64.15
70976;BME280;58635;51.198;6.010;2023-02-11T09:46:34;103353.53;;;10.51;64.04
70976;BME280;58635;51.198;6.010;2023-02-11T09:49:01;103352.59;;;10.52;64.35
70976;BME280;58635;51.198;6.010;2023-02-11T09:51:39;103356.81;;;10.53;64.16
70976;BME280;58635;51.198;6.010;2023-02-11T09:54:18;103360.94;;;10.56;64.22
70976;BME280;58635;51.198;6.010;2023-02-11T09:56:45;103367.75;;;10.57;64.25
70976;BME280;58635;51.198;6.010;2023-02-11T09:59:14;103369.38;;;10.58;64.23
70976;BME280;58635;51.198;6.010;2023-02-11T10:01:54;103379.59;;;10.60;64.35
70976;BME280;58635;51.198;6.010;2023-02-11T10:07:08;103377.00;;;10.60;64.22
70976;BME280;58635;51.198;6.010;2023-02-11T10:12:27;103391.19;;;10.65;64.18
70976;BME280;58635;51.198;6.010;2023-02-11T10:22:54;103396.25;;;10.67;63.89
70976;BME280;58635;51.198;6.010;2023-02-11T10:25:34;103405.25;;;10.72;63.84
70976;BME280;58635;51.198;6.010;2023-02-11T10:28:10;103408.69;;;10.73;63.95
70976;BME280;58635;51.198;6.010;2023-02-11T10:30:41;103402.41;;;10.75;64.11
70976;BME280;58635;51.198;6.010;2023-02-11T10:33:19;103405.44;;;10.80;63.94
70976;BME280;58635;51.198;6.010;2023-02-11T10:35:47;103399.19;;;10.83;63.88
70976;BME280;58635;51.198;6.010;2023-02-11T10:38:12;103407.63;;;10.85;63.89
70976;BME280;58635;51.198;6.010;2023-02-11T10:40:39;103402.44;;;10.85;63.82
70976;BME280;58635;51.198;6.010;2023-02-11T10:43:09;103410.09;;;10.87;63.96
70976;BME280;58635;51.198;6.010;2023-02-11T10:45:38;103411.03;;;10.86;64.16
70976;BME280;58635;51.198;6.010;2023-02-11T10:48:06;103409.41;;;10.84;64.18
70976;BME280;58635;51.198;6.010;2023-02-11T10:51:15;103402.44;;;10.85;64.08
70976;BME280;58635;51.198;6.010;2023-02-11T10:53:41;103401.38;;;10.88;64.10
70976;BME280;58635;51.198;6.010;2023-02-11T10:56:10;103399.22;;;10.93;63.82
70976;BME280;58635;51.198;6.010;2023-02-11T10:58:57;103395.41;;;10.97;63.97
70976;BME280;58635;51.198;6.010;2023-02-11T11:01:38;103399.50;;;10.99;63.94
70976;BME280;58635;51.198;6.010;2023-02-11T11:04:05;103398.69;;;10.99;64.02
70976;BME280;58635;51.198;6.010;2023-02-11T11:06:31;103402.91;;;11.00;64.00
70976;BME280;58635;51.198;6.010;2023-02-11T11:08:58;103402.91;;;11.00;63.91
70976;BME280;58635;51.198;6.010;2023-02-11T11:11:24;103405.38;;;11.01;63.96
70976;BME280;58635;51.198;6.010;2023-02-11T11:14:00;103413.97;;;11.02;63.98
70976;BME280;58635;51.198;6.010;2023-02-11T11:16:31;103407.13;;;11.01;64.04
70976;BME280;58635;51.198;6.010;2023-02-11T11:21:40;103410.84;;;11.08;63.85
70976;BME280;58635;51.198;6.010;2023-02-11T11:24:32;103416.47;;;11.13;63.71
70976;BME280;58635;51.198;6.010;2023-02-11T11:27:03;103418.22;;;11.12;63.78
70976;BME280;58635;51.198;6.010;2023-02-11T11:29:42;103410.19;;;11.16;63.73
70976;BME280;58635;51.198;6.010;2023-02-11T11:32:30;103415.50;;;11.14;63.78
70976;BME280;58635;51.198;6.010;2023-02-11T11:35:02;103403.50;;;11.13;63.88
70976;BME280;58635;51.198;6.010;2023-02-11T11:37:31;103411.69;;;11.18;63.68
70976;BME280;58635;51.198;6.010;2023-02-11T11:40:08;103412.38;;;11.20;63.77
70976;BME280;58635;51.198;6.010;2023-02-11T11:42:36;103399.16;;;11.23;63.83
70976;BME280;58635;51.198;6.010;2023-02-11T11:47:47;103405.16;;;11.33;63.41
70976;BME280;58635;51.198;6.010;2023-02-11T11:50:24;103407.38;;;11.38;63.42
70976;BME280;58635;51.198;6.010;2023-02-11T11:55:29;103404.38;;;11.42;63.34
70976;BME280;58635;51.198;6.010;2023-02-11T11:57:56;103403.28;;;11.45;63.44
70976;BME280;58635;51.198;6.010;2023-02-11T12:00:27;103402.88;;;11.50;63.26
70976;BME280;58635;51.198;6.010;2023-02-11T12:14:39;103396.19;;;11.66;62.94
70976;BME280;58635;51.198;6.010;2023-02-11T12:25:29;103387.88;;;12.02;62.48
70976;BME280;58635;51.198;6.010;2023-02-11T12:31:08;103376.53;;;12.12;62.18
70976;BME280;58635;51.198;6.010;2023-02-11T12:33:58;103387.69;;;12.32;61.64
70976;BME280;58635;51.198;6.010;2023-02-11T12:36:48;103389.69;;;12.48;61.24
70976;BME280;58635;51.198;6.010;2023-02-11T12:39:30;103388.06;;;12.47;61.16
70976;BME280;58635;51.198;6.010;2023-02-11T12:45:31;103382.53;;;12.59;60.95
70976;BME280;58635;51.198;6.010;2023-02-11T12:53:44;103388.69;;;12.58;60.76
70976;BME280;58635;51.198;6.010;2023-02-11T12:58:38;103386.31;;;12.65;60.83
70976;BME280;58635;51.198;6.010;2023-02-11T13:01:17;103379.91;;;12.69;60.77
70976;BME280;58635;51.198;6.010;2023-02-11T13:03:52;103384.69;;;12.64;60.91
70976;BME280;58635;51.198;6.010;2023-02-11T13:06:28;103383.31;;;12.70;60.85
70976;BME280;58635;51.198;6.010;2023-02-11T13:09:03;103382.50;;;12.69;60.59
70976;BME280;58635;51.198;6.010;2023-02-11T13:11:41;103374.72;;;12.69;60.60
70976;BME280;58635;51.198;6.010;2023-02-11T13:14:14;103371.28;;;12.69;60.77
70976;BME280;58635;51.198;6.010;2023-02-11T13:16:46;103366.38;;;12.66;60.74
70976;BME280;58635;51.198;6.010;2023-02-11T13:24:40;103366.25;;;12.67;60.80
70976;BME280;58635;51.198;6.010;2023-02-11T13:33:15;103358.13;;;12.80;60.39
70976;BME280;58635;51.198;6.010;2023-02-11T13:38:22;103359.16;;;12.87;60.25
70976;BME280;58635;51.198;6.010;2023-02-11T13:47:00;103365.22;;;12.78;60.43
70976;BME280;58635;51.198;6.010;2023-02-11T13:49:38;103372.00;;;12.61;61.18
70976;BME280;58635;51.198;6.010;2023-02-11T13:52:17;103368.88;;;12.57;61.22
70976;BME280;58635;51.198;6.010;2023-02-11T13:54:50;103368.06;;;12.57;61.31
70976;BME280;58635;51.198;6.010;2023-02-11T14:03:16;103362.09;;;12.47;61.68
70976;BME280;58635;51.198;6.010;2023-02-11T14:11:42;103373.47;;;12.36;61.87
70976;BME280;58635;51.198;6.010;2023-02-11T14:14:32;103377.16;;;12.34;61.92
70976;BME280;58635;51.198;6.010;2023-02-11T14:19:34;103382.34;;;12.34;61.98
70976;BME280;58635;51.198;6.010;2023-02-11T14:22:02;103378.25;;;12.31;61.96
70976;BME280;58635;51.198;6.010;2023-02-11T14:26:58;103384.28;;;12.32;61.97
70976;BME280;58635;51.198;6.010;2023-02-11T14:29:42;103383.16;;;12.34;61.87
70976;BME280;58635;51.198;6.010;2023-02-11T14:34:50;103375.75;;;12.39;61.85
70976;BME280;58635;51.198;6.010;2023-02-11T14:42:40;103387.78;;;12.40;61.95
70976;BME280;58635;51.198;6.010;2023-02-11T14:45:13;103390.78;;;12.45;61.96
70976;BME280;58635;51.198;6.010;2023-02-11T14:47:49;103388.88;;;12.47;61.74
70976;BME280;58635;51.198;6.010;2023-02-11T14:50:27;103386.13;;;12.49;61.73
70976;BME280;58635;51.198;6.010;2023-02-11T14:52:59;103381.75;;;12.49;61.62
70976;BME280;58635;51.198;6.010;2023-02-11T14:55:33;103379.00;;;12.51;61.75
70976;BME280;58635;51.198;6.010;2023-02-11T15:00:30;103373.28;;;12.47;61.80
70976;BME280;58635;51.198;6.010;2023-02-11T15:02:56;103372.78;;;12.44;61.83
70976;BME280;58635;51.198;6.010;2023-02-11T15:05:26;103379.84;;;12.42;62.00
70976;BME280;58635;51.198;6.010;2023-02-11T15:07:58;103380.97;;;12.39;61.88
70976;BME280;58635;51.198;6.010;2023-02-11T15:10:34;103387.13;;;12.38;61.79
70976;BME280;58635;51.198;6.010;2023-02-11T15:13:02;103391.63;;;12.36;61.86
70976;BME280;58635;51.198;6.010;2023-02-11T15:15:30;103395.03;;;12.37;62.18
70976;BME280;58635;51.198;6.010;2023-02-11T15:17:58;103393.13;;;12.39;61.91
70976;BME280;58635;51.198;6.010;2023-02-11T15:20:27;103388.06;;;12.37;62.09
70976;BME280;58635;51.198;6.010;2023-02-11T15:23:00;103392.44;;;12.37;62.05